createdAt,value
2019-01-24T00:00:46.719Z,96660.98
2019-01-24T00:02:48.363Z,96664.24
2019-01-24T00:04:49.967Z,96666.77
2019-01-24T00:06:51.575Z,96670.37
2019-01-24T00:08:53.179Z,96667.12
2019-01-24T00:10:54.774Z,96664.06
2019-01-24T00:12:56.384Z,96664.56
2019-01-24T00:14:58.026Z,96666.20
2019-01-24T00:16:59.640Z,96669.09
2019-01-24T00:19:01.253Z,96663.65
2019-01-24T00:21:03.468Z,96665.88
2019-01-24T00:23:05.075Z,96660.88
2019-01-24T00:25:06.669Z,96660.05
2019-01-24T00:29:09.852Z,96663.73
2019-01-24T00:31:11.464Z,96665.84
2019-01-24T00:33:13.116Z,96664.92
2019-01-24T00:35:14.730Z,96666.72
2019-01-24T00:37:16.343Z,96664.61
2019-01-24T00:39:17.955Z,96666.45
2019-01-24T00:41:19.551Z,96663.27
2019-01-24T00:43:21.153Z,96668.46
2019-01-24T00:45:22.785Z,96670.18
2019-01-24T00:47:24.377Z,96676.23
2019-01-24T00:49:25.987Z,96677.20
2019-01-24T00:51:27.614Z,96685.70
2019-01-24T00:53:29.210Z,96678.55
2019-01-24T00:55:30.811Z,96676.02
2019-01-24T00:57:32.441Z,96683.77
2019-01-24T00:59:34.047Z,96684.28
2019-01-24T01:01:35.641Z,96686.41
2019-01-24T01:03:37.223Z,96688.64
2019-01-24T01:05:38.820Z,96692.47
2019-01-24T01:07:40.418Z,96690.41
2019-01-24T01:09:42.055Z,96688.80
2019-01-24T01:11:43.640Z,96684.96
2019-01-24T01:13:45.282Z,96682.51
2019-01-24T01:15:46.896Z,96689.73
2019-01-24T01:17:48.508Z,96692.80
2019-01-24T01:19:50.146Z,96695.34
2019-01-24T01:21:51.757Z,96699.09
2019-01-24T01:23:53.362Z,96699.19
2019-01-24T01:25:54.957Z,96702.92
2019-01-24T01:27:56.564Z,96698.33
2019-01-24T01:29:58.190Z,96702.59
2019-01-24T01:31:59.786Z,96705.55
2019-01-24T01:34:01.405Z,96707.66
2019-01-24T01:36:03.001Z,96700.00
2019-01-24T01:38:04.594Z,96704.70
2019-01-24T01:40:06.264Z,96710.56
2019-01-24T01:42:07.873Z,96705.86
2019-01-24T01:44:09.469Z,96711.72
2019-01-24T01:46:11.072Z,96709.48
2019-01-24T01:48:12.670Z,96705.27
2019-01-24T01:50:14.273Z,96705.27
2019-01-24T01:52:15.904Z,96708.33
2019-01-24T01:54:17.501Z,96705.70
2019-01-24T01:56:19.118Z,96717.55
2019-01-24T01:58:20.728Z,96721.00
2019-01-24T02:00:22.326Z,96717.16
2019-01-24T02:02:23.921Z,96721.95
2019-01-24T02:04:25.551Z,96727.45
2019-01-24T02:06:27.180Z,96725.64
2019-01-24T02:08:28.802Z,96723.76
2019-01-24T02:10:30.397Z,96727.63
2019-01-24T02:12:32.003Z,96725.33
2019-01-24T02:14:33.626Z,96730.30
2019-01-24T02:16:35.265Z,96726.52
2019-01-24T02:18:36.882Z,96682.00
2019-01-24T02:20:38.464Z,96716.48
2019-01-24T02:22:40.125Z,96713.52
2019-01-24T02:24:41.735Z,96715.20
2019-01-24T02:26:43.333Z,96709.83
2019-01-24T02:28:44.916Z,96717.44
2019-01-24T02:30:46.523Z,96710.12
2019-01-24T02:32:48.139Z,96714.28
2019-01-24T02:34:49.920Z,96718.23
2019-01-24T02:36:51.479Z,96720.03
2019-01-24T02:38:53.092Z,96712.24
2019-01-24T02:40:54.690Z,96712.00
2019-01-24T02:42:56.301Z,96711.77
2019-01-24T02:44:57.898Z,96702.61
2019-01-24T02:46:59.494Z,96702.02
2019-01-24T02:49:01.119Z,96703.39
2019-01-24T02:51:02.725Z,96696.97
2019-01-24T02:53:04.312Z,96704.74
2019-01-24T02:55:05.968Z,96708.17
2019-01-24T02:57:07.576Z,96716.29
2019-01-24T02:59:09.174Z,96716.05
2019-01-24T03:01:10.784Z,96715.66
2019-01-24T03:03:12.395Z,96720.39
2019-01-24T03:05:14.031Z,96727.97
2019-01-24T03:07:15.645Z,96740.42
2019-01-24T03:09:17.283Z,96736.88
2019-01-24T03:11:18.882Z,96732.47
2019-01-24T03:13:20.477Z,96728.17
2019-01-24T03:15:22.144Z,96731.37
2019-01-24T03:17:23.749Z,96735.33
2019-01-24T03:19:25.345Z,96740.61
2019-01-24T03:21:26.948Z,96734.20
2019-01-24T03:23:28.532Z,96733.20
2019-01-24T03:25:30.167Z,96735.05
2019-01-24T03:27:31.762Z,96738.50
2019-01-24T03:29:33.363Z,96733.08
2019-01-24T03:31:35.024Z,96729.52
2019-01-24T03:33:36.646Z,96731.13
2019-01-24T03:35:38.243Z,96726.25
2019-01-24T03:37:39.901Z,96733.69
2019-01-24T03:39:41.489Z,96730.20
2019-01-24T03:41:43.090Z,96729.65
2019-01-24T03:43:44.689Z,96736.62
2019-01-24T03:45:46.277Z,96734.78
2019-01-24T03:47:47.870Z,96736.34
2019-01-24T03:49:49.510Z,96739.08
2019-01-24T03:51:51.117Z,96744.29
2019-01-24T03:53:52.713Z,96744.07
2019-01-24T03:55:54.323Z,96749.42
2019-01-24T03:57:55.917Z,96755.65
2019-01-24T03:59:57.510Z,96759.30
2019-01-24T04:01:59.145Z,96764.34
2019-01-24T04:04:00.742Z,96767.26
2019-01-24T04:06:02.346Z,96766.47
2019-01-24T04:08:03.938Z,96765.00
2019-01-24T04:10:05.548Z,96762.77
2019-01-24T04:12:08.387Z,96768.29
2019-01-24T04:14:08.866Z,96775.97
2019-01-24T04:16:10.465Z,96775.33
2019-01-24T04:18:12.076Z,96779.40
2019-01-24T04:20:13.716Z,96785.05
2019-01-24T04:22:15.373Z,96780.95
2019-01-24T04:24:17.005Z,96782.78
2019-01-24T04:26:18.601Z,96780.75
2019-01-24T04:28:20.193Z,96779.91
2019-01-24T04:30:21.814Z,96778.75
2019-01-24T04:32:23.406Z,96783.98
2019-01-24T04:34:25.040Z,96784.05
2019-01-24T04:36:26.643Z,96782.80
2019-01-24T04:38:28.241Z,96785.77
2019-01-24T04:40:29.853Z,96791.01
2019-01-24T04:42:31.489Z,96787.14
2019-01-24T04:44:33.072Z,96793.46
2019-01-24T04:46:34.669Z,96794.20
2019-01-24T04:48:36.286Z,96803.92
2019-01-24T04:50:37.890Z,96794.06
2019-01-24T04:52:39.499Z,96803.78
2019-01-24T04:54:41.108Z,96802.86
2019-01-24T04:56:42.739Z,96796.55
2019-01-24T04:58:44.380Z,96798.23
2019-01-24T05:00:45.982Z,96805.87
2019-01-24T05:02:47.580Z,96804.61
2019-01-24T05:04:49.178Z,96802.72
2019-01-24T05:06:50.803Z,96806.64
2019-01-24T05:08:52.443Z,96803.40
2019-01-24T05:10:54.038Z,96809.63
2019-01-24T05:12:55.645Z,96804.70
2019-01-24T05:14:57.247Z,96813.02
2019-01-24T05:16:58.842Z,96811.53
2019-01-24T05:19:00.462Z,96821.91
2019-01-24T05:21:02.063Z,96819.84
2019-01-24T05:23:03.659Z,96822.02
2019-01-24T05:25:05.269Z,96817.21
2019-01-24T05:27:06.893Z,96822.32
2019-01-24T05:29:08.495Z,96823.66
2019-01-24T05:31:10.099Z,96828.41
2019-01-24T05:33:11.720Z,96825.42
2019-01-24T05:35:13.332Z,96830.84
2019-01-24T05:37:14.963Z,96838.14
2019-01-24T05:39:16.557Z,96841.33
2019-01-24T05:41:18.167Z,96846.13
2019-01-24T05:43:19.783Z,96840.50
2019-01-24T05:45:21.424Z,96841.07
2019-01-24T05:47:23.045Z,96839.31
2019-01-24T05:49:24.627Z,96842.77
2019-01-24T05:51:26.236Z,96842.33
2019-01-24T05:53:27.930Z,96847.51
2019-01-24T05:55:29.622Z,96856.46
2019-01-24T05:57:31.232Z,96822.01
2019-01-24T05:59:32.867Z,96861.69
2019-01-24T06:01:34.460Z,96859.61
2019-01-24T06:03:36.088Z,96858.87
2019-01-24T06:05:41.726Z,96856.36
2019-01-24T06:07:39.365Z,96853.98
2019-01-24T06:09:40.976Z,96863.52
2019-01-24T06:11:42.604Z,96867.42
2019-01-24T06:13:44.185Z,96873.88
2019-01-24T06:15:45.768Z,96877.75
2019-01-24T06:17:47.376Z,96876.55
2019-01-24T06:19:49.001Z,96874.09
2019-01-24T06:21:50.606Z,96870.30
2019-01-24T06:23:52.240Z,96875.48
2019-01-24T06:25:53.847Z,96880.64
2019-01-24T06:27:55.450Z,96879.47
2019-01-24T06:29:57.090Z,96876.36
2019-01-24T06:31:58.686Z,96888.23
2019-01-24T06:34:00.292Z,96889.95
2019-01-24T06:36:01.889Z,96884.98
2019-01-24T06:38:03.486Z,96894.83
2019-01-24T06:40:05.081Z,96896.68
2019-01-24T06:42:06.704Z,96900.95
2019-01-24T06:44:08.308Z,96904.50
2019-01-24T06:46:09.937Z,96900.39
2019-01-24T06:48:11.544Z,96909.30
2019-01-24T06:50:13.185Z,96907.16
2019-01-24T06:52:14.798Z,96896.12
2019-01-24T06:54:16.403Z,96906.22
2019-01-24T06:56:18.015Z,96910.48
2019-01-24T06:58:19.628Z,96914.75
2019-01-24T07:00:21.253Z,96913.61
2019-01-24T07:02:22.845Z,96914.10
2019-01-24T07:04:24.447Z,96916.87
2019-01-24T07:06:26.036Z,96919.65
2019-01-24T07:08:27.630Z,96916.38
2019-01-24T07:10:29.289Z,96915.05
2019-01-24T07:12:30.871Z,96927.41
2019-01-24T07:14:32.465Z,96928.57
2019-01-24T07:16:34.092Z,96929.02
2019-01-24T07:18:35.691Z,96934.27
2019-01-24T07:20:37.290Z,96936.55
2019-01-24T07:22:38.900Z,96934.80
2019-01-24T07:24:40.497Z,96936.55
2019-01-24T07:26:42.104Z,96941.33
2019-01-24T07:28:43.716Z,96947.86
2019-01-24T07:30:45.327Z,96950.11
2019-01-24T07:32:46.925Z,96945.08
2019-01-24T07:34:48.546Z,96944.30
2019-01-24T07:36:50.169Z,96949.03
2019-01-24T07:38:51.779Z,96946.95
2019-01-24T07:40:53.406Z,96953.03
2019-01-24T07:42:55.045Z,96953.98
2019-01-24T07:44:56.659Z,96945.80
2019-01-24T07:46:58.244Z,96956.32
2019-01-24T07:48:59.827Z,96954.28
2019-01-24T07:51:01.422Z,96957.38
2019-01-24T07:53:03.032Z,96925.98
2019-01-24T07:55:04.638Z,96964.70
2019-01-24T07:57:06.282Z,96968.16
2019-01-24T07:59:07.868Z,96969.08
2019-01-24T08:01:09.458Z,96975.98
2019-01-24T08:03:11.053Z,96976.95
2019-01-24T08:05:12.645Z,96979.50
2019-01-24T08:07:14.241Z,96976.86
2019-01-24T08:09:15.876Z,96980.59
2019-01-24T08:11:17.473Z,96977.09
2019-01-24T08:13:19.398Z,96977.04
2019-01-24T08:15:21.033Z,96975.25
2019-01-24T08:17:22.630Z,96983.45
2019-01-24T08:19:24.212Z,96976.84
2019-01-24T08:21:25.810Z,96977.44
2019-01-24T08:23:27.401Z,96976.91
2019-01-24T08:25:29.012Z,96983.47
2019-01-24T08:27:30.614Z,96986.41
2019-01-24T08:29:32.225Z,96984.60
2019-01-24T08:31:33.826Z,96979.83
2019-01-24T08:33:35.425Z,96980.72
2019-01-24T08:35:37.021Z,96978.09
2019-01-24T08:37:38.687Z,96975.08
2019-01-24T08:39:40.282Z,96973.13
2019-01-24T08:41:41.891Z,96982.20
2019-01-24T08:43:43.479Z,96985.03
2019-01-24T08:45:45.076Z,96974.61
2019-01-24T08:47:46.683Z,96972.19
2019-01-24T08:49:48.335Z,96970.72
2019-01-24T08:51:49.937Z,96976.44
2019-01-24T08:53:51.548Z,96973.63
2019-01-24T08:55:53.172Z,96972.14
2019-01-24T08:57:54.773Z,96977.81
2019-01-24T08:59:56.370Z,96988.11
2019-01-24T09:01:57.981Z,96975.95
2019-01-24T09:03:59.593Z,96978.95
2019-01-24T09:06:01.213Z,96974.45
2019-01-24T09:08:02.903Z,96975.50
2019-01-24T09:10:04.512Z,96983.91
2019-01-24T09:12:06.127Z,96991.64
2019-01-24T09:14:07.729Z,97010.80
2019-01-24T09:16:09.322Z,96995.16
2019-01-24T09:18:10.919Z,96992.70
2019-01-24T09:20:12.544Z,96993.57
2019-01-24T09:22:14.142Z,96999.17
2019-01-24T09:24:15.757Z,97003.00
2019-01-24T09:26:17.344Z,96997.47
2019-01-24T09:28:18.937Z,96995.55
2019-01-24T09:30:20.548Z,96997.11
2019-01-24T09:32:22.202Z,97002.00
2019-01-24T09:34:23.810Z,97010.28
2019-01-24T09:36:29.256Z,97010.92
2019-01-24T09:38:27.148Z,97020.69
2019-01-24T09:40:28.746Z,97011.09
2019-01-24T09:42:30.348Z,97013.34
2019-01-24T09:44:31.936Z,97022.98
2019-01-24T09:46:33.530Z,97024.50
2019-01-24T09:48:35.173Z,97031.46
2019-01-24T09:50:36.815Z,97029.45
2019-01-24T09:52:38.419Z,97033.53
2019-01-24T09:54:40.013Z,97030.58
2019-01-24T09:56:41.665Z,97021.44
2019-01-24T09:58:43.301Z,97023.78
2019-01-24T10:00:44.904Z,97027.94
2019-01-24T10:02:46.512Z,97018.48
2019-01-24T10:04:48.127Z,97027.41
2019-01-24T10:06:50.649Z,97021.19
2019-01-24T10:08:51.373Z,97021.81
2019-01-24T10:10:52.956Z,97022.19
2019-01-24T10:12:54.619Z,97014.61
2019-01-24T10:14:56.218Z,97016.88
2019-01-24T10:16:57.810Z,97011.42
2019-01-24T10:18:59.428Z,97009.91
2019-01-24T10:21:01.120Z,97009.38
2019-01-24T10:23:02.736Z,97013.89
2019-01-24T10:25:04.334Z,97016.44
2019-01-24T10:27:05.981Z,97013.86
2019-01-24T10:29:07.583Z,97012.64
2019-01-24T10:31:09.168Z,97023.14
2019-01-24T10:33:10.793Z,97011.30
2019-01-24T10:35:12.404Z,97012.28
2019-01-24T10:37:14.045Z,97013.78
2019-01-24T10:39:15.657Z,97010.61
2019-01-24T10:41:17.248Z,97013.48
2019-01-24T10:43:18.890Z,97017.80
2019-01-24T10:45:20.485Z,97013.09
2019-01-24T10:47:22.087Z,97012.03
2019-01-24T10:49:23.685Z,97014.17
2019-01-24T10:51:25.297Z,97003.54
2019-01-24T10:53:26.908Z,97017.05
2019-01-24T10:55:28.577Z,97018.46
2019-01-24T10:57:30.170Z,97016.49
2019-01-24T10:59:31.790Z,97008.03
2019-01-24T11:01:33.423Z,97011.19
2019-01-24T11:03:35.087Z,97011.68
2019-01-24T11:05:36.697Z,97009.25
2019-01-24T11:07:38.349Z,97003.84
2019-01-24T11:09:39.932Z,97003.09
2019-01-24T11:11:41.528Z,97007.99
2019-01-24T11:13:43.122Z,97010.25
2019-01-24T11:15:44.721Z,97006.38
2019-01-24T11:17:46.331Z,97009.19
2019-01-24T11:19:47.980Z,97007.58
2019-01-24T11:21:49.617Z,97007.02
2019-01-24T11:23:51.217Z,97004.66
2019-01-24T11:25:52.839Z,97012.70
2019-01-24T11:27:54.434Z,97018.36
2019-01-24T11:29:56.048Z,97017.62
2019-01-24T11:31:57.655Z,97027.19
2019-01-24T11:33:59.267Z,97025.84
2019-01-24T11:36:01.064Z,97030.77
2019-01-24T11:38:02.679Z,97040.06
2019-01-24T11:40:04.292Z,97031.83
2019-01-24T11:42:05.891Z,97026.93
2019-01-24T11:44:07.498Z,97020.47
2019-01-24T11:46:09.103Z,97021.97
2019-01-24T11:48:10.711Z,97018.59
2019-01-24T11:50:12.790Z,97019.28
2019-01-24T11:52:14.490Z,97011.56
2019-01-24T11:54:16.119Z,97021.37
2019-01-24T11:56:17.719Z,97022.61
2019-01-24T11:58:19.321Z,97018.89
2019-01-24T12:00:20.985Z,97022.53
2019-01-24T12:02:22.670Z,97002.25
2019-01-24T12:04:24.251Z,96986.61
2019-01-24T12:06:25.845Z,97014.27
2019-01-24T12:08:27.455Z,97018.61
2019-01-24T12:10:29.054Z,97014.33
2019-01-24T12:12:30.688Z,97010.70
2019-01-24T12:14:32.332Z,97011.48
2019-01-24T12:16:33.930Z,97012.17
2019-01-24T12:18:35.516Z,97012.07
2019-01-24T12:20:37.123Z,97017.48
2019-01-24T12:22:38.727Z,97012.41
2019-01-24T12:24:40.326Z,97009.22
2019-01-24T12:26:41.908Z,97010.09
2019-01-24T12:28:43.502Z,97008.90
2019-01-24T12:30:45.121Z,97006.86
2019-01-24T12:32:46.755Z,97008.05
2019-01-24T12:34:48.349Z,97008.02
2019-01-24T12:36:49.941Z,97015.39
2019-01-24T12:38:51.555Z,97016.31
2019-01-24T12:40:53.143Z,97010.66
2019-01-24T12:42:54.743Z,97016.21
2019-01-24T12:44:56.361Z,97019.16
2019-01-24T12:46:57.964Z,97025.50
2019-01-24T12:48:59.558Z,97017.52
2019-01-24T12:51:01.270Z,97020.91
2019-01-24T12:53:02.966Z,97015.72
2019-01-24T12:55:04.586Z,97021.33
2019-01-24T12:57:06.194Z,97023.05
2019-01-24T12:59:07.807Z,97028.19
2019-01-24T13:01:09.443Z,97025.41
2019-01-24T13:03:11.079Z,97020.16
2019-01-24T13:05:12.687Z,97018.35
2019-01-24T13:07:18.400Z,97019.20
2019-01-24T13:09:15.935Z,97017.62
2019-01-24T13:11:17.548Z,97011.31
2019-01-24T13:13:19.200Z,97012.53
2019-01-24T13:15:20.812Z,97019.08
2019-01-24T13:17:22.404Z,97006.37
2019-01-24T13:19:24.036Z,97011.48
2019-01-24T13:21:25.634Z,97014.38
2019-01-24T13:23:27.239Z,97012.42
2019-01-24T13:25:28.873Z,97016.67
2019-01-24T13:27:30.522Z,97021.48
2019-01-24T13:29:32.156Z,97022.88
2019-01-24T13:31:33.782Z,97020.95
2019-01-24T13:33:35.397Z,97024.10
2019-01-24T13:35:36.989Z,97024.95
2019-01-24T13:37:38.640Z,97024.20
2019-01-24T13:39:40.252Z,97034.85
2019-01-24T13:41:42.589Z,97028.58
2019-01-24T13:43:43.505Z,97033.86
2019-01-24T13:45:45.107Z,97034.20
2019-01-24T13:47:46.692Z,97037.63
2019-01-24T13:49:48.295Z,97032.53
2019-01-24T13:51:49.895Z,97044.64
2019-01-24T13:53:51.504Z,97039.10
2019-01-24T13:55:53.126Z,97038.48
2019-01-24T13:57:54.722Z,97044.58
2019-01-24T13:59:56.356Z,97044.98
2019-01-24T14:01:57.977Z,97047.61
2019-01-24T14:03:59.629Z,97050.53
2019-01-24T14:06:01.259Z,97049.31
2019-01-24T14:08:02.987Z,97050.66
2019-01-24T14:10:05.473Z,97056.63
2019-01-24T14:12:07.073Z,97045.39
2019-01-24T14:14:08.674Z,97053.95
2019-01-24T14:16:10.259Z,97053.95
2019-01-24T14:18:11.862Z,97051.03
2019-01-24T14:20:13.569Z,97052.75
2019-01-24T14:22:15.290Z,97050.61
2019-01-24T14:24:17.041Z,97052.77
2019-01-24T14:26:18.642Z,97056.24
2019-01-24T14:28:20.275Z,97061.63
2019-01-24T14:30:21.920Z,97064.59
2019-01-24T14:32:23.517Z,97066.72
2019-01-24T14:34:25.115Z,97066.64
2019-01-24T14:36:26.723Z,97072.66
2019-01-24T14:38:28.347Z,97070.57
2019-01-24T14:40:29.980Z,97062.95
2019-01-24T14:42:31.587Z,97062.88
2019-01-24T14:44:33.219Z,97065.52
2019-01-24T14:46:34.817Z,97065.52
2019-01-24T14:48:36.419Z,97065.45
2019-01-24T14:50:38.525Z,97072.34
2019-01-24T14:52:39.722Z,97071.48
2019-01-24T14:54:41.307Z,97071.83
2019-01-24T14:56:42.901Z,97064.99
2019-01-24T14:58:44.591Z,97072.17
2019-01-24T15:00:46.243Z,97071.95
2019-01-24T15:02:47.964Z,97060.77
2019-01-24T15:04:49.557Z,97076.65
2019-01-24T15:06:51.198Z,97076.70
2019-01-24T15:08:52.804Z,97080.60
2019-01-24T15:10:54.399Z,97079.58
2019-01-24T15:12:56.032Z,97079.59
2019-01-24T15:14:57.636Z,97082.20
2019-01-24T15:16:59.248Z,97081.81
2019-01-24T15:19:00.855Z,97077.60
2019-01-24T15:21:12.374Z,97087.84
2019-01-24T15:23:14.653Z,97089.92
2019-01-24T15:25:16.371Z,97097.20
2019-01-24T15:27:18.012Z,97089.19
2019-01-24T15:29:19.668Z,97086.03
2019-01-24T15:31:21.262Z,97093.27
2019-01-24T15:33:22.876Z,97095.53
2019-01-24T15:35:24.590Z,97095.80
2019-01-24T15:37:26.229Z,97097.01
2019-01-24T15:39:27.871Z,97096.55
2019-01-24T15:41:29.457Z,97093.25
2019-01-24T15:43:31.059Z,97093.25
2019-01-24T15:45:32.716Z,97093.70
2019-01-24T15:47:34.327Z,97091.42
2019-01-24T15:49:35.921Z,97092.36
2019-01-24T15:51:37.527Z,97094.92
2019-01-24T15:53:39.150Z,97100.84
2019-01-24T15:55:40.750Z,97100.80
2019-01-24T15:57:42.403Z,97098.66
2019-01-24T15:59:44.021Z,97102.94
2019-01-24T16:01:45.670Z,97105.49
2019-01-24T16:03:47.382Z,97110.19
2019-01-24T16:05:49.048Z,97099.89
2019-01-24T16:07:50.655Z,97107.29
2019-01-24T16:09:52.259Z,97104.83
2019-01-24T16:11:53.858Z,97107.44
2019-01-24T16:13:55.502Z,97103.72
2019-01-24T16:15:58.572Z,97111.08
2019-01-24T16:17:58.762Z,97114.86
2019-01-24T16:20:00.420Z,97116.48
2019-01-24T16:22:02.027Z,97117.77
2019-01-24T16:24:03.640Z,97121.59
2019-01-24T16:26:05.287Z,97120.94
2019-01-24T16:28:06.897Z,97122.58
2019-01-24T16:30:08.507Z,97125.97
2019-01-24T16:32:10.109Z,97120.11
2019-01-24T16:34:11.702Z,97126.78
2019-01-24T16:36:13.351Z,97131.70
2019-01-24T16:38:14.936Z,97131.14
2019-01-24T16:40:16.529Z,97135.86
2019-01-24T16:42:18.119Z,97136.81
2019-01-24T16:44:19.777Z,97138.77
2019-01-24T16:46:21.542Z,97140.48
2019-01-24T16:48:23.137Z,97137.44
2019-01-24T16:50:24.745Z,97139.16
2019-01-24T16:52:26.385Z,97142.14
2019-01-24T16:54:27.968Z,97149.75
2019-01-24T16:56:29.575Z,97143.36
2019-01-24T16:58:31.209Z,97151.88
2019-01-24T17:00:32.796Z,97147.94
2019-01-24T17:02:34.405Z,97145.78
2019-01-24T17:04:36.017Z,97153.47
2019-01-24T17:06:37.613Z,97153.84
2019-01-24T17:08:39.220Z,97150.37
2019-01-24T17:10:40.849Z,97159.41
2019-01-24T17:12:42.450Z,97162.75
2019-01-24T17:14:44.049Z,97161.47
2019-01-24T17:16:45.664Z,97160.61
2019-01-24T17:18:47.275Z,97164.30
2019-01-24T17:20:48.882Z,97165.06
2019-01-24T17:22:50.493Z,97160.88
2019-01-24T17:24:52.096Z,97157.92
2019-01-24T17:26:53.708Z,97163.02
2019-01-24T17:28:55.310Z,97168.96
2019-01-24T17:30:56.919Z,97167.89
2019-01-24T17:32:58.525Z,97168.33
2019-01-24T17:35:00.228Z,97178.22
2019-01-24T17:37:01.840Z,97179.49
2019-01-24T17:39:03.452Z,97181.90
2019-01-24T17:41:05.087Z,97179.95
2019-01-24T17:43:06.676Z,97181.73
2019-01-24T17:45:08.270Z,97181.55
2019-01-24T17:47:09.910Z,97188.59
2019-01-24T17:49:11.524Z,97185.88
2019-01-24T17:51:13.136Z,97193.06
2019-01-24T17:53:14.774Z,97193.34
2019-01-24T17:55:16.369Z,97186.70
2019-01-24T17:57:18.274Z,97186.48
2019-01-24T17:59:19.874Z,97184.56
2019-01-24T18:01:21.509Z,97185.70
2019-01-24T18:03:23.098Z,97183.94
2019-01-24T18:05:24.760Z,97191.84
2019-01-24T18:07:26.435Z,97193.95
2019-01-24T18:09:28.061Z,97194.38
2019-01-24T18:11:29.705Z,97189.26
2019-01-24T18:13:31.384Z,97185.42
2019-01-24T18:15:33.008Z,97190.02
2019-01-24T18:17:34.641Z,97191.56
2019-01-24T18:19:36.295Z,97194.25
2019-01-24T18:21:37.909Z,97199.39
2019-01-24T18:23:39.557Z,97201.95
2019-01-24T18:25:41.261Z,97179.80
2019-01-24T18:27:42.983Z,97196.73
2019-01-24T18:29:44.586Z,97195.95
2019-01-24T18:31:46.222Z,97212.60
2019-01-24T18:33:47.818Z,97210.48
2019-01-24T18:35:49.424Z,97206.48
2019-01-24T18:37:51.075Z,97211.20
2019-01-24T18:39:52.689Z,97211.65
2019-01-24T18:41:54.300Z,97202.17
2019-01-24T18:43:55.898Z,97210.37
2019-01-24T18:45:57.488Z,97196.39
2019-01-24T18:47:59.113Z,97203.63
2019-01-24T18:50:00.724Z,97203.97
2019-01-24T18:52:02.330Z,97207.05
2019-01-24T18:54:04.016Z,97207.56
2019-01-24T18:56:05.618Z,97210.46
2019-01-24T18:58:07.270Z,97195.23
2019-01-24T19:00:08.869Z,97210.16
2019-01-24T19:02:10.453Z,97208.12
2019-01-24T19:04:12.169Z,97205.16
2019-01-24T19:06:13.857Z,97210.79
2019-01-24T19:08:15.482Z,97200.75
2019-01-24T19:10:17.139Z,97197.64
2019-01-24T19:12:18.765Z,97206.95
2019-01-24T19:14:20.365Z,97204.09
2019-01-24T19:16:21.976Z,97206.09
2019-01-24T19:18:23.615Z,97206.59
2019-01-24T19:20:25.280Z,97205.38
2019-01-24T19:22:26.874Z,97205.25
2019-01-24T19:24:28.488Z,97211.63
2019-01-24T19:26:30.104Z,97218.42
2019-01-24T19:28:31.729Z,97176.14
2019-01-24T19:30:33.363Z,97217.67
2019-01-24T19:32:34.996Z,97217.81
2019-01-24T19:34:36.711Z,97218.91
2019-01-24T19:36:38.328Z,97221.34
2019-01-24T19:38:39.980Z,97222.64
2019-01-24T19:40:41.582Z,97227.63
2019-01-24T19:42:43.185Z,97231.55
2019-01-24T19:44:44.846Z,97236.55
2019-01-24T19:46:46.464Z,97241.16
2019-01-24T19:48:48.080Z,97232.34
2019-01-24T19:50:49.716Z,97238.30
2019-01-24T19:52:51.300Z,97239.11
2019-01-24T19:54:52.906Z,97236.34
2019-01-24T19:56:54.634Z,97238.95
2019-01-24T19:58:56.174Z,97239.90
2019-01-24T20:00:57.775Z,97237.34
2019-01-24T20:02:59.413Z,97239.44
2019-01-24T20:05:01.011Z,97238.20
2019-01-24T20:07:02.624Z,97238.16
2019-01-24T20:09:04.223Z,97238.18
2019-01-24T20:11:05.836Z,97242.51
2019-01-24T20:13:07.521Z,97238.72
2019-01-24T20:15:09.159Z,97245.09
2019-01-24T20:17:10.747Z,97239.58
2019-01-24T20:19:12.391Z,97243.79
2019-01-24T20:21:14.002Z,97242.98
2019-01-24T20:23:15.612Z,97243.46
2019-01-24T20:25:17.283Z,97244.77
2019-01-24T20:27:18.896Z,97246.46
2019-01-24T20:29:20.508Z,97248.58
2019-01-24T20:31:22.119Z,97244.77
2019-01-24T20:33:23.945Z,97245.27
2019-01-24T20:35:25.559Z,97248.18
2019-01-24T20:37:28.186Z,97250.02
2019-01-24T20:39:29.786Z,97246.13
2019-01-24T20:41:31.373Z,97250.78
2019-01-24T20:43:35.521Z,97252.95
2019-01-24T20:45:34.685Z,97255.03
2019-01-24T20:47:36.367Z,97254.06
2019-01-24T20:49:38.041Z,97251.41
2019-01-24T20:51:39.653Z,97254.83
2019-01-24T20:53:41.250Z,97251.14
2019-01-24T20:55:42.890Z,97254.06
2019-01-24T20:57:44.493Z,97252.34
2019-01-24T20:59:46.126Z,97256.17
2019-01-24T21:01:47.735Z,97254.92
2019-01-24T21:03:55.335Z,97248.20
2019-01-24T21:05:50.993Z,97253.60
2019-01-24T21:07:52.635Z,97255.30
2019-01-24T21:09:54.239Z,97250.34
2019-01-24T21:11:55.848Z,97251.89
2019-01-24T21:13:57.453Z,97252.67
2019-01-24T21:15:59.049Z,97257.83
2019-01-24T21:18:00.652Z,97256.69
2019-01-24T21:20:02.284Z,97260.58
2019-01-24T21:22:03.896Z,97256.82
2019-01-24T21:24:05.527Z,97267.10
2019-01-24T21:26:07.132Z,97270.45
2019-01-24T21:28:08.908Z,97267.16
2019-01-24T21:30:10.528Z,97265.50
2019-01-24T21:32:12.124Z,97267.19
2019-01-24T21:34:13.718Z,97270.13
2019-01-24T21:36:15.351Z,97271.77
2019-01-24T21:38:16.983Z,97265.36
2019-01-24T21:40:18.582Z,97271.77
2019-01-24T21:42:20.172Z,97273.84
2019-01-24T21:44:21.781Z,97278.89
2019-01-24T21:46:24.653Z,97276.33
2019-01-24T21:48:25.068Z,97278.11
2019-01-24T21:50:26.731Z,97270.06
2019-01-24T21:52:28.329Z,97269.17
2019-01-24T21:54:29.946Z,97267.56
2019-01-24T21:56:31.584Z,97267.75
2019-01-24T21:58:33.188Z,97272.06
2019-01-24T22:00:34.848Z,97275.06
2019-01-24T22:02:36.448Z,97273.59
2019-01-24T22:04:38.154Z,97277.51
2019-01-24T22:06:39.823Z,97270.90
2019-01-24T22:08:41.469Z,97271.86
2019-01-24T22:10:43.084Z,97270.25
2019-01-24T22:12:44.723Z,97278.27
2019-01-24T22:14:46.322Z,97282.61
2019-01-24T22:16:47.923Z,97280.50
2019-01-24T22:18:49.566Z,97277.52
2019-01-24T22:20:55.589Z,97278.86
2019-01-24T22:22:52.835Z,97275.23
2019-01-24T22:24:54.447Z,97248.59
2019-01-24T22:26:56.056Z,97282.17
2019-01-24T22:28:57.668Z,97280.70
2019-01-24T22:31:00.036Z,97277.42
2019-01-24T22:33:01.074Z,97278.67
2019-01-24T22:35:02.683Z,97280.05
2019-01-24T22:37:04.296Z,97275.17
2019-01-24T22:39:05.889Z,97279.05
2019-01-24T22:41:07.503Z,97274.55
2019-01-24T22:43:09.145Z,97278.00
2019-01-24T22:45:10.732Z,97277.77
2019-01-24T22:47:12.431Z,97284.09
2019-01-24T22:49:14.104Z,97287.71
2019-01-24T22:51:15.724Z,97282.56
2019-01-24T22:53:17.363Z,97287.08
2019-01-24T22:55:18.970Z,97292.31
2019-01-24T22:57:20.569Z,97291.13
2019-01-24T22:59:22.165Z,97285.17
2019-01-24T23:01:23.771Z,97251.20
2019-01-24T23:03:25.378Z,97288.97
2019-01-24T23:05:27.004Z,97292.64
2019-01-24T23:07:28.601Z,97292.41
2019-01-24T23:09:30.209Z,97287.95
2019-01-24T23:11:31.855Z,97288.54
2019-01-24T23:13:33.440Z,97279.39
2019-01-24T23:15:35.048Z,97275.50
2019-01-24T23:17:36.656Z,97275.41
2019-01-24T23:19:38.258Z,97277.09
2019-01-24T23:21:39.894Z,97275.55
2019-01-24T23:23:41.493Z,97272.78
2019-01-24T23:25:43.158Z,97277.02
2019-01-24T23:27:45.357Z,97271.00
2019-01-24T23:29:46.969Z,97276.77
2019-01-24T23:31:48.555Z,97278.15
2019-01-24T23:33:50.153Z,97272.45
2019-01-24T23:35:51.783Z,97276.19
2019-01-24T23:37:53.391Z,97274.61
2019-01-24T23:39:58.466Z,97275.17
2019-01-24T23:42:00.056Z,97275.03
2019-01-24T23:44:01.656Z,97277.27
2019-01-24T23:46:03.315Z,97276.48
2019-01-24T23:48:04.979Z,97277.44
2019-01-24T23:50:06.587Z,97276.38